createdAt,value
2019-04-26T00:00:41.021Z,8.00
2019-04-26T00:01:41.033Z,8.00
2019-04-26T00:02:41.018Z,8.00
2019-04-26T00:03:41.018Z,8.00
2019-04-26T00:04:41.017Z,8.00
2019-04-26T00:05:41.013Z,8.00
2019-04-26T00:06:41.013Z,8.00
2019-04-26T00:07:41.010Z,8.00
2019-04-26T00:08:41.010Z,8.00
2019-04-26T00:09:41.004Z,8.00
2019-04-26T00:10:41.004Z,8.00
2019-04-26T00:11:41.006Z,8.00
2019-04-26T00:12:41.009Z,8.00
2019-04-26T00:13:41.014Z,8.00
2019-04-26T00:14:40.999Z,8.00
2019-04-26T00:15:40.997Z,8.00
2019-04-26T00:16:40.993Z,8.00
2019-04-26T00:17:40.992Z,8.00
2019-04-26T00:18:40.987Z,8.00
2019-04-26T00:19:40.989Z,8.00
2019-04-26T00:20:40.989Z,8.00
2019-04-26T00:21:40.982Z,8.00
2019-04-26T00:22:40.982Z,8.00
2019-04-26T00:23:40.994Z,8.00
2019-04-26T00:24:40.992Z,8.00
2019-04-26T00:25:40.973Z,8.00
2019-04-26T00:26:40.971Z,8.00
2019-04-26T00:27:40.970Z,8.00
2019-04-26T00:28:40.968Z,8.00
2019-04-26T00:29:40.966Z,8.00
2019-04-26T00:30:40.964Z,8.00
2019-04-26T00:31:41.251Z,8.00
2019-04-26T00:32:40.958Z,8.00
2019-04-26T00:33:40.959Z,8.00
2019-04-26T00:34:40.957Z,8.00
2019-04-26T00:35:47.275Z,8.00
2019-04-26T00:36:40.959Z,8.00
2019-04-26T00:37:40.954Z,8.00
2019-04-26T00:38:40.946Z,8.00
2019-04-26T00:39:40.950Z,8.00
2019-04-26T00:40:40.942Z,8.00
2019-04-26T00:41:40.942Z,8.00
2019-04-26T00:42:40.939Z,8.00
2019-04-26T00:43:40.946Z,8.00
2019-04-26T00:44:40.945Z,8.00
2019-04-26T00:45:40.932Z,8.00
2019-04-26T00:46:40.933Z,8.00
2019-04-26T00:47:40.926Z,8.00
2019-04-26T00:48:40.925Z,8.00
2019-04-26T00:49:43.863Z,8.00
2019-04-26T00:50:40.923Z,8.00
2019-04-26T00:51:40.921Z,8.00
2019-04-26T00:52:40.982Z,8.00
2019-04-26T00:53:40.920Z,8.00
2019-04-26T00:54:40.915Z,8.00
2019-04-26T00:55:40.911Z,8.00
2019-04-26T00:56:40.907Z,8.00
2019-04-26T00:57:40.903Z,8.00
2019-04-26T00:58:40.918Z,8.00
2019-04-26T00:59:40.899Z,8.00
2019-04-26T01:00:40.898Z,8.00
2019-04-26T01:01:40.896Z,8.00
2019-04-26T01:02:41.695Z,8.00
2019-04-26T01:03:40.887Z,8.00
2019-04-26T01:04:40.885Z,8.00
2019-04-26T01:05:40.892Z,8.00
2019-04-26T01:06:40.882Z,8.00
2019-04-26T01:07:40.879Z,8.00
2019-04-26T01:08:40.880Z,8.00
2019-04-26T01:09:40.873Z,8.00
2019-04-26T01:10:40.870Z,8.00
2019-04-26T01:11:40.869Z,8.00
2019-04-26T01:12:40.866Z,8.00
2019-04-26T01:13:40.864Z,8.00
2019-04-26T01:14:40.861Z,8.00
2019-04-26T01:15:40.858Z,8.00
2019-04-26T01:16:40.853Z,8.00
2019-04-26T01:17:40.856Z,8.00
2019-04-26T01:18:40.850Z,8.00
2019-04-26T01:19:40.857Z,8.00
2019-04-26T01:20:40.851Z,8.00
2019-04-26T01:21:40.840Z,8.00
2019-04-26T01:22:40.844Z,8.00
2019-04-26T01:23:40.836Z,8.00
2019-04-26T01:24:40.834Z,8.00
2019-04-26T01:25:40.834Z,8.00
2019-04-26T01:26:40.830Z,8.00
2019-04-26T01:27:40.855Z,8.00
2019-04-26T01:28:40.826Z,8.00
2019-04-26T01:29:40.819Z,8.00
2019-04-26T01:30:40.832Z,8.00
2019-04-26T01:31:40.816Z,8.00
2019-04-26T01:32:40.811Z,8.00
2019-04-26T01:33:40.809Z,8.00
2019-04-26T01:34:40.805Z,8.00
2019-04-26T01:35:40.803Z,8.00
2019-04-26T01:36:40.804Z,8.00
2019-04-26T01:37:40.799Z,8.00
2019-04-26T01:38:40.802Z,8.00
2019-04-26T01:39:40.793Z,8.00
2019-04-26T01:40:40.790Z,8.00
2019-04-26T01:41:40.798Z,8.00
2019-04-26T01:42:40.783Z,8.00
2019-04-26T01:43:40.780Z,8.00
2019-04-26T01:44:40.799Z,8.00
2019-04-26T01:45:40.774Z,8.00
2019-04-26T01:46:40.773Z,8.00
2019-04-26T01:47:40.776Z,8.00
2019-04-26T01:48:40.767Z,8.00
2019-04-26T01:49:40.763Z,8.00
2019-04-26T01:50:40.761Z,8.00
2019-04-26T01:51:40.763Z,8.00
2019-04-26T01:52:40.755Z,8.00
2019-04-26T01:53:40.754Z,8.00
2019-04-26T01:54:40.757Z,8.00
2019-04-26T01:55:40.773Z,8.00
2019-04-26T01:56:40.745Z,8.00
2019-04-26T01:57:40.737Z,8.00
2019-04-26T01:58:40.751Z,8.00
2019-04-26T01:59:40.735Z,8.00
2019-04-26T02:00:40.730Z,8.00
2019-04-26T02:01:40.732Z,8.00
2019-04-26T02:02:40.725Z,8.00
2019-04-26T02:03:40.722Z,8.00
2019-04-26T02:04:40.719Z,8.00
2019-04-26T02:05:40.714Z,8.00
2019-04-26T02:06:40.711Z,8.00
2019-04-26T02:07:40.711Z,8.00
2019-04-26T02:08:40.722Z,8.00
2019-04-26T02:09:40.706Z,8.00
2019-04-26T02:10:40.702Z,8.00
2019-04-26T02:11:40.703Z,8.00
2019-04-26T02:12:40.700Z,8.00
2019-04-26T02:13:40.693Z,8.00
2019-04-26T02:14:40.691Z,8.00
2019-04-26T02:15:40.685Z,8.00
2019-04-26T02:16:40.684Z,8.00
2019-04-26T02:17:40.681Z,8.00
2019-04-26T02:18:40.681Z,8.00
2019-04-26T02:19:40.677Z,8.00
2019-04-26T02:20:40.674Z,8.00
2019-04-26T02:21:40.669Z,8.00
2019-04-26T02:22:40.678Z,8.00
2019-04-26T02:23:40.681Z,8.00
2019-04-26T02:24:40.661Z,8.00
2019-04-26T02:25:40.658Z,8.00
2019-04-26T02:26:40.653Z,8.00
2019-04-26T02:27:40.653Z,8.00
2019-04-26T02:28:40.652Z,8.00
2019-04-26T02:29:40.651Z,8.00
2019-04-26T02:30:40.645Z,8.00
2019-04-26T02:31:40.642Z,8.00
2019-04-26T02:32:40.652Z,8.00
2019-04-26T02:33:40.640Z,8.00
2019-04-26T02:34:41.007Z,8.00
2019-04-26T02:35:40.629Z,8.00
2019-04-26T02:36:56.108Z,8.00
2019-04-26T02:37:40.629Z,8.00
2019-04-26T02:38:40.625Z,8.00
2019-04-26T02:39:40.620Z,8.00
2019-04-26T02:40:40.618Z,8.00
2019-04-26T02:41:40.612Z,8.00
2019-04-26T02:42:40.623Z,8.00
2019-04-26T02:43:40.632Z,8.00
2019-04-26T02:44:40.611Z,8.00
2019-04-26T02:45:40.603Z,8.00
2019-04-26T02:46:40.600Z,8.00
2019-04-26T02:47:40.598Z,8.00
2019-04-26T02:48:40.598Z,8.00
2019-04-26T02:49:40.596Z,8.00
2019-04-26T02:50:40.598Z,8.00
2019-04-26T02:51:40.587Z,8.00
2019-04-26T02:52:40.584Z,8.00
2019-04-26T02:53:40.601Z,8.00
2019-04-26T02:54:40.581Z,8.00
2019-04-26T02:55:42.701Z,8.00
2019-04-26T02:56:40.586Z,8.00
2019-04-26T02:57:40.571Z,8.00
2019-04-26T02:58:40.568Z,8.00
2019-04-26T02:59:41.024Z,8.00
2019-04-26T03:00:40.561Z,8.00
2019-04-26T03:01:40.561Z,8.00
2019-04-26T03:02:40.637Z,8.00
2019-04-26T03:03:40.554Z,8.00
2019-04-26T03:04:40.549Z,8.00
2019-04-26T03:05:41.477Z,8.00
2019-04-26T03:06:41.209Z,8.00
2019-04-26T03:07:40.539Z,8.00
2019-04-26T03:08:40.547Z,8.00
2019-04-26T03:09:40.555Z,8.00
2019-04-26T03:10:40.596Z,8.00
2019-04-26T03:11:40.531Z,8.00
2019-04-26T03:12:40.526Z,8.00
2019-04-26T03:13:40.525Z,8.00
2019-04-26T03:14:41.963Z,8.00
2019-04-26T03:15:40.518Z,8.00
2019-04-26T03:16:41.502Z,8.00
2019-04-26T03:17:40.938Z,8.00
2019-04-26T03:18:41.603Z,8.00
2019-04-26T03:19:40.865Z,8.00
2019-04-26T03:20:42.244Z,8.00
2019-04-26T03:21:41.471Z,4.00
2019-04-26T03:22:41.161Z,4.00
2019-04-26T03:23:53.260Z,8.00
2019-04-26T03:24:42.164Z,8.00
2019-04-26T03:25:42.088Z,8.00
2019-04-26T03:26:41.553Z,8.00
2019-04-26T03:27:43.029Z,8.00
2019-04-26T03:28:43.456Z,8.00
2019-04-26T03:29:41.958Z,8.00
2019-04-26T03:30:48.635Z,8.00
2019-04-26T03:31:51.910Z,8.00
2019-04-26T03:32:50.319Z,8.00
2019-04-26T03:33:49.967Z,8.00
2019-04-26T03:34:50.750Z,8.00
2019-04-26T03:35:54.550Z,4.00
2019-04-26T03:36:42.064Z,8.00
2019-04-26T03:37:42.007Z,8.00
2019-04-26T03:38:41.916Z,8.00
2019-04-26T03:39:42.416Z,8.00
2019-04-26T03:40:42.441Z,8.00
2019-04-26T03:41:41.086Z,12.00
2019-04-26T03:42:42.201Z,12.00
2019-04-26T03:43:41.356Z,16.00
2019-04-26T03:44:41.144Z,16.00
2019-04-26T03:45:42.471Z,20.00
2019-04-26T03:46:41.840Z,20.00
2019-04-26T03:47:42.666Z,20.00
2019-04-26T03:48:41.708Z,24.00
2019-04-26T03:49:42.053Z,28.00
2019-04-26T03:50:41.023Z,32.00
2019-04-26T03:51:41.143Z,36.00
2019-04-26T03:52:42.112Z,36.00
2019-04-26T03:53:41.871Z,44.00
2019-04-26T03:54:41.064Z,48.00
2019-04-26T03:55:41.949Z,52.00
2019-04-26T03:56:41.819Z,60.00
2019-04-26T03:57:42.166Z,64.00
2019-04-26T03:58:41.793Z,72.00
2019-04-26T03:59:42.170Z,80.00
2019-04-26T04:00:41.475Z,84.00
2019-04-26T04:01:41.267Z,92.00
2019-04-26T04:02:41.550Z,100.00
2019-04-26T04:03:43.156Z,112.00
2019-04-26T04:04:41.603Z,116.00
2019-04-26T04:05:41.979Z,128.00
2019-04-26T04:06:56.359Z,136.00
2019-04-26T04:07:47.283Z,144.00
2019-04-26T04:08:41.991Z,156.00
2019-04-26T04:09:41.449Z,164.00
2019-04-26T04:10:41.944Z,176.00
2019-04-26T04:11:42.305Z,184.00
2019-04-26T04:12:42.157Z,196.00
2019-04-26T04:13:43.264Z,208.00
2019-04-26T04:14:41.938Z,220.00
2019-04-26T04:15:41.934Z,232.00
2019-04-26T04:16:42.443Z,248.00
2019-04-26T04:17:43.296Z,260.00
2019-04-26T04:18:41.770Z,272.00
2019-04-26T04:19:41.883Z,284.00
2019-04-26T04:20:41.065Z,296.00
2019-04-26T04:21:41.231Z,312.00
2019-04-26T04:22:41.773Z,328.00
2019-04-26T04:23:41.866Z,348.00
2019-04-26T04:24:41.637Z,384.00
2019-04-26T04:25:42.355Z,408.00
2019-04-26T04:26:41.500Z,436.00
2019-04-26T04:27:41.952Z,452.00
2019-04-26T04:28:42.052Z,472.00
2019-04-26T04:29:47.140Z,492.00
2019-04-26T04:30:41.919Z,508.00
2019-04-26T04:31:41.656Z,524.00
2019-04-26T04:32:41.904Z,540.00
2019-04-26T04:33:42.654Z,564.00
2019-04-26T04:34:42.132Z,600.00
2019-04-26T04:35:42.251Z,632.00
2019-04-26T04:36:41.725Z,660.00
2019-04-26T04:38:02.188Z,696.00
2019-04-26T04:38:42.049Z,808.00
2019-04-26T04:39:42.059Z,1000.00
2019-04-26T04:40:40.866Z,1092.00
2019-04-26T04:41:41.029Z,1112.00
2019-04-26T04:42:41.500Z,1072.00
2019-04-26T04:43:41.854Z,1004.00
2019-04-26T04:44:42.337Z,988.00
2019-04-26T04:45:41.732Z,1004.00
2019-04-26T04:46:41.743Z,1068.00
2019-04-26T04:47:41.228Z,1148.00
2019-04-26T04:48:41.169Z,1264.00
2019-04-26T04:49:41.212Z,1468.00
2019-04-26T04:50:40.960Z,1848.00
2019-04-26T04:51:40.854Z,1972.00
2019-04-26T04:52:42.501Z,1592.00
2019-04-26T04:53:41.186Z,1368.00
2019-04-26T04:54:41.568Z,1324.00
2019-04-26T04:55:42.818Z,1360.00
2019-04-26T04:56:41.512Z,1416.00
2019-04-26T04:57:40.170Z,1468.00
2019-04-26T04:58:40.165Z,1544.00
2019-04-26T04:59:40.163Z,1448.00
2019-04-26T05:00:40.160Z,1656.00
2019-04-26T05:01:40.158Z,1748.00
2019-04-26T05:02:40.166Z,1780.00
2019-04-26T05:03:40.166Z,1844.00
2019-04-26T05:04:40.156Z,1936.00
2019-04-26T05:05:40.158Z,2064.00
2019-04-26T05:06:40.143Z,2152.00
2019-04-26T05:07:40.140Z,2272.00
2019-04-26T05:08:40.135Z,2292.00
2019-04-26T05:09:40.183Z,2520.00
2019-04-26T05:10:40.130Z,2560.00
2019-04-26T05:11:40.129Z,2464.00
2019-04-26T05:12:40.126Z,2616.00
2019-04-26T05:13:40.121Z,2964.00
2019-04-26T05:14:40.119Z,2132.00
2019-04-26T05:15:40.114Z,2104.00
2019-04-26T05:16:40.123Z,1544.00
2019-04-26T05:17:40.110Z,2952.00
2019-04-26T05:18:40.105Z,2508.00
2019-04-26T05:19:40.122Z,2432.00
2019-04-26T05:20:40.116Z,2396.00
2019-04-26T05:21:40.099Z,2776.00
2019-04-26T05:22:40.098Z,2612.00
2019-04-26T05:23:40.095Z,2404.00
2019-04-26T05:24:40.102Z,2940.00
2019-04-26T05:25:40.494Z,3956.00
2019-04-26T05:26:40.084Z,3572.00
2019-04-26T05:27:40.085Z,4128.00
2019-04-26T05:28:40.083Z,3268.00
2019-04-26T05:29:40.088Z,3668.00
2019-04-26T05:30:40.076Z,4684.00
2019-04-26T05:31:40.074Z,2996.00
2019-04-26T05:32:40.078Z,3156.00
2019-04-26T05:33:40.068Z,3888.00
2019-04-26T05:34:40.069Z,4696.00
2019-04-26T05:35:40.070Z,4708.00
2019-04-26T05:36:40.065Z,4668.00
2019-04-26T05:37:40.068Z,4484.00
2019-04-26T05:38:40.061Z,2788.00
2019-04-26T05:39:40.076Z,3608.00
2019-04-26T05:40:40.059Z,2660.00
2019-04-26T05:41:40.055Z,4100.00
2019-04-26T05:42:40.056Z,3296.00
2019-04-26T05:43:40.052Z,3840.00
2019-04-26T05:44:40.073Z,4320.00
2019-04-26T05:45:40.648Z,3892.00
2019-04-26T05:46:40.049Z,4488.00
2019-04-26T05:47:40.046Z,4444.00
2019-04-26T05:48:40.052Z,3976.00
2019-04-26T05:49:40.056Z,3880.00
2019-04-26T05:50:40.041Z,4408.00
2019-04-26T05:51:40.040Z,3448.00
2019-04-26T05:52:40.041Z,2732.00
2019-04-26T05:53:40.047Z,3020.00
2019-04-26T05:54:40.038Z,3168.00
2019-04-26T05:55:40.035Z,2424.00
2019-04-26T05:56:40.035Z,3996.00
2019-04-26T05:57:40.034Z,3376.00
2019-04-26T05:58:40.032Z,3228.00
2019-04-26T05:59:40.029Z,2848.00
2019-04-26T06:00:40.028Z,3100.00
2019-04-26T06:01:40.034Z,4532.00
2019-04-26T06:02:40.025Z,2752.00
2019-04-26T06:03:40.024Z,3724.00
2019-04-26T06:04:40.022Z,2676.00
2019-04-26T06:05:40.024Z,3520.00
2019-04-26T06:06:40.020Z,3076.00
2019-04-26T06:07:40.022Z,2912.00
2019-04-26T06:08:40.026Z,3264.00
2019-04-26T06:09:40.015Z,2816.00
2019-04-26T06:10:40.026Z,3556.00
2019-04-26T06:11:40.015Z,3076.00
2019-04-26T06:12:40.011Z,2672.00
2019-04-26T06:13:40.009Z,2484.00
2019-04-26T06:14:40.014Z,2860.00
2019-04-26T06:15:40.074Z,2664.00
2019-04-26T06:16:40.006Z,2900.00
2019-04-26T06:17:40.003Z,2980.00
2019-04-26T06:18:40.034Z,3244.00
2019-04-26T06:19:40.001Z,2540.00
2019-04-26T06:20:40.001Z,2764.00
2019-04-26T06:21:40.008Z,2576.00
2019-04-26T06:22:40.002Z,2416.00
2019-04-26T06:23:40.004Z,2456.00
2019-04-26T06:24:39.997Z,3700.00
2019-04-26T06:25:39.992Z,3180.00
2019-04-26T06:26:41.556Z,3216.00
2019-04-26T06:27:39.998Z,2908.00
2019-04-26T06:28:39.992Z,2612.00
2019-04-26T06:29:39.986Z,2148.00
2019-04-26T06:30:45.574Z,2068.00
2019-04-26T06:31:39.994Z,2008.00
2019-04-26T06:32:40.020Z,1680.00
2019-04-26T06:33:39.981Z,1532.00
2019-04-26T06:34:39.982Z,1508.00
2019-04-26T06:35:39.982Z,1520.00
2019-04-26T06:36:39.984Z,1460.00
2019-04-26T06:37:39.975Z,1436.00
2019-04-26T06:38:44.032Z,1480.00
2019-04-26T06:39:39.973Z,1492.00
2019-04-26T06:40:42.015Z,1532.00
2019-04-26T06:41:39.970Z,1636.00
2019-04-26T06:42:39.966Z,1636.00
2019-04-26T06:43:39.968Z,1652.00
2019-04-26T06:44:39.976Z,1672.00
2019-04-26T06:45:40.025Z,1680.00
2019-04-26T06:46:39.961Z,1728.00
2019-04-26T06:47:39.962Z,1776.00
2019-04-26T06:48:39.983Z,1764.00
2019-04-26T06:49:39.955Z,1732.00
2019-04-26T06:50:39.960Z,1744.00
2019-04-26T06:51:39.976Z,1760.00
2019-04-26T06:52:39.951Z,1744.00
2019-04-26T06:53:39.950Z,1732.00
2019-04-26T06:54:39.946Z,1752.00
2019-04-26T06:55:39.972Z,1724.00
2019-04-26T06:56:39.943Z,1688.00
2019-04-26T06:57:39.940Z,1656.00
2019-04-26T06:58:39.945Z,1624.00
2019-04-26T06:59:39.937Z,1628.00
2019-04-26T07:00:39.934Z,1616.00
2019-04-26T07:01:39.935Z,1616.00
2019-04-26T07:02:39.936Z,1572.00
2019-04-26T07:03:39.930Z,1520.00
2019-04-26T07:04:39.927Z,1536.00
2019-04-26T07:05:39.930Z,1544.00
2019-04-26T07:06:39.927Z,1536.00
2019-04-26T07:07:39.931Z,1516.00
2019-04-26T07:08:39.924Z,1540.00
2019-04-26T07:09:39.918Z,1584.00
2019-04-26T07:10:39.918Z,1588.00
2019-04-26T07:11:40.975Z,1620.00
2019-04-26T07:12:39.913Z,1656.00
2019-04-26T07:13:39.920Z,1748.00
2019-04-26T07:14:39.907Z,1804.00
2019-04-26T07:15:39.906Z,1860.00
2019-04-26T07:16:39.911Z,1936.00
2019-04-26T07:17:39.916Z,2004.00
2019-04-26T07:18:39.911Z,2088.00
2019-04-26T07:19:39.902Z,2164.00
2019-04-26T07:20:39.896Z,2260.00
2019-04-26T07:21:39.898Z,2368.00
2019-04-26T07:22:39.896Z,2356.00
2019-04-26T07:23:39.895Z,2332.00
2019-04-26T07:24:39.895Z,2352.00
2019-04-26T07:25:39.888Z,2392.00
2019-04-26T07:26:39.903Z,2460.00
2019-04-26T07:27:39.912Z,2592.00
2019-04-26T07:28:39.882Z,2668.00
2019-04-26T07:29:39.919Z,2664.00
2019-04-26T07:30:39.881Z,2652.00
2019-04-26T07:31:39.878Z,2688.00
2019-04-26T07:32:39.880Z,2764.00
2019-04-26T07:33:39.956Z,2800.00
2019-04-26T07:34:39.874Z,2868.00
2019-04-26T07:35:39.875Z,2964.00
2019-04-26T07:36:39.870Z,3072.00
2019-04-26T07:37:39.867Z,3104.00
2019-04-26T07:38:39.876Z,3128.00
2019-04-26T07:39:39.864Z,3208.00
2019-04-26T07:40:39.872Z,3216.00
2019-04-26T07:41:39.862Z,3272.00
2019-04-26T07:42:39.859Z,3312.00
2019-04-26T07:43:39.902Z,3356.00
2019-04-26T07:44:39.854Z,3376.00
2019-04-26T07:45:39.851Z,3392.00
2019-04-26T07:46:39.853Z,3408.00
2019-04-26T07:47:39.849Z,3436.00
2019-04-26T07:48:39.848Z,3468.00
2019-04-26T07:49:39.848Z,3484.00
2019-04-26T07:50:39.847Z,3588.00
2019-04-26T07:51:39.859Z,3664.00
2019-04-26T07:52:39.849Z,3696.00
2019-04-26T07:53:39.844Z,3804.00
2019-04-26T07:54:39.875Z,3868.00
2019-04-26T07:55:39.901Z,3904.00
2019-04-26T07:56:39.889Z,3948.00
2019-04-26T07:57:40.529Z,3988.00
2019-04-26T07:58:42.530Z,3984.00
2019-04-26T07:59:39.866Z,4000.00
2019-04-26T08:00:45.015Z,3996.00
2019-04-26T08:01:39.963Z,4016.00
2019-04-26T08:02:39.988Z,4024.00
2019-04-26T08:03:39.946Z,4036.00
2019-04-26T08:04:39.885Z,4040.00
2019-04-26T08:05:39.895Z,4072.00
2019-04-26T08:06:39.824Z,4096.00
2019-04-26T08:07:39.897Z,4124.00
2019-04-26T08:08:40.580Z,4156.00
2019-04-26T08:09:39.825Z,4196.00
2019-04-26T08:10:39.848Z,4220.00
2019-04-26T08:11:39.826Z,4264.00
2019-04-26T08:12:39.843Z,4304.00
2019-04-26T08:13:39.835Z,4356.00
2019-04-26T08:14:39.821Z,4448.00
2019-04-26T08:15:39.840Z,4436.00
2019-04-26T08:16:39.896Z,4500.00
2019-04-26T08:17:39.885Z,4548.00
2019-04-26T08:18:39.996Z,4600.00
2019-04-26T08:19:39.862Z,4592.00
2019-04-26T08:20:39.853Z,4608.00
2019-04-26T08:21:42.770Z,4580.00
2019-04-26T08:22:39.936Z,4596.00
2019-04-26T08:23:42.149Z,4572.00
2019-04-26T08:24:39.820Z,4624.00
2019-04-26T08:25:39.822Z,4776.00
2019-04-26T08:26:39.828Z,4808.00
2019-04-26T08:27:39.823Z,4828.00
2019-04-26T08:28:39.815Z,4860.00
2019-04-26T08:29:39.831Z,4872.00
2019-04-26T08:30:40.529Z,4868.00
2019-04-26T08:31:39.943Z,4916.00
2019-04-26T08:32:40.516Z,5012.00
2019-04-26T08:33:40.414Z,5004.00
2019-04-26T08:34:39.927Z,4940.00
2019-04-26T08:35:39.822Z,4896.00
2019-04-26T08:36:45.945Z,4844.00
2019-04-26T08:37:39.815Z,4888.00
2019-04-26T08:38:40.039Z,5000.00
2019-04-26T08:39:45.502Z,4956.00
2019-04-26T08:40:39.818Z,5016.00
2019-04-26T08:41:40.235Z,5064.00
2019-04-26T08:42:39.814Z,5116.00
2019-04-26T08:43:40.150Z,5084.00
2019-04-26T08:44:39.813Z,4972.00
2019-04-26T08:45:40.547Z,4908.00
2019-04-26T08:46:39.814Z,4740.00
2019-04-26T08:47:39.822Z,4572.00
2019-04-26T08:48:39.821Z,4444.00
2019-04-26T08:49:40.085Z,4348.00
2019-04-26T08:50:42.205Z,4292.00
2019-04-26T08:51:39.937Z,4320.00
2019-04-26T08:52:39.817Z,4212.00
2019-04-26T08:53:39.819Z,4044.00
2019-04-26T08:54:39.830Z,4112.00
2019-04-26T08:55:39.817Z,4404.00
2019-04-26T08:56:39.816Z,4652.00
2019-04-26T08:57:39.823Z,5060.00
2019-04-26T08:58:39.824Z,5396.00
2019-04-26T08:59:39.819Z,5376.00
2019-04-26T09:00:39.819Z,5164.00
2019-04-26T09:01:42.063Z,4992.00
2019-04-26T09:02:39.827Z,4868.00
2019-04-26T09:03:39.827Z,5164.00
2019-04-26T09:04:41.600Z,5264.00
2019-04-26T09:05:39.861Z,5432.00
2019-04-26T09:06:39.832Z,5184.00
2019-04-26T09:07:40.104Z,4864.00
2019-04-26T09:08:43.500Z,4480.00
2019-04-26T09:09:39.834Z,4244.00
2019-04-26T09:10:43.337Z,4024.00
2019-04-26T09:11:39.841Z,4000.00
2019-04-26T09:12:39.847Z,4044.00
2019-04-26T09:13:39.882Z,4084.00
2019-04-26T09:14:40.847Z,4152.00
2019-04-26T09:15:40.733Z,4132.00
2019-04-26T09:16:49.884Z,4100.00
2019-04-26T09:17:39.860Z,4292.00
2019-04-26T09:18:43.610Z,3984.00
2019-04-26T09:19:39.893Z,4036.00
2019-04-26T09:20:42.938Z,4352.00
2019-04-26T09:21:39.873Z,4176.00
2019-04-26T09:22:39.903Z,4260.00
2019-04-26T09:23:40.589Z,4408.00
2019-04-26T09:24:39.888Z,4032.00
2019-04-26T09:25:39.877Z,4156.00
2019-04-26T09:26:42.446Z,4212.00
2019-04-26T09:27:39.882Z,4172.00
2019-04-26T09:28:39.882Z,4208.00
2019-04-26T09:29:39.933Z,4356.00
2019-04-26T09:30:42.273Z,4488.00
2019-04-26T09:31:39.885Z,4548.00
2019-04-26T09:32:39.889Z,4592.00
2019-04-26T09:33:39.893Z,4732.00
2019-04-26T09:34:41.293Z,4784.00
2019-04-26T09:35:39.896Z,4768.00
2019-04-26T09:36:39.894Z,4996.00
2019-04-26T09:37:39.896Z,4948.00
2019-04-26T09:38:39.906Z,4952.00
2019-04-26T09:39:41.692Z,5072.00
2019-04-26T09:40:39.904Z,5192.00
2019-04-26T09:41:39.903Z,5332.00
2019-04-26T09:42:41.022Z,5184.00
2019-04-26T09:43:39.909Z,5508.00
2019-04-26T09:44:41.320Z,5628.00
2019-04-26T09:45:39.928Z,5496.00
2019-04-26T09:46:39.911Z,5496.00
2019-04-26T09:47:39.942Z,5464.00
2019-04-26T09:48:39.927Z,5524.00
2019-04-26T09:49:41.163Z,5584.00
2019-04-26T09:50:39.918Z,5540.00
2019-04-26T09:51:40.495Z,5480.00
2019-04-26T09:52:39.925Z,5348.00
2019-04-26T09:53:43.511Z,5328.00
2019-04-26T09:54:39.926Z,5232.00
2019-04-26T09:55:39.926Z,5144.00
2019-04-26T09:56:39.928Z,5048.00
2019-04-26T09:57:39.930Z,4732.00
2019-04-26T09:58:39.932Z,4468.00
2019-04-26T09:59:41.105Z,4448.00
2019-04-26T10:00:39.937Z,4636.00
2019-04-26T10:01:39.938Z,4760.00
2019-04-26T10:02:39.941Z,5024.00
2019-04-26T10:03:39.941Z,4924.00
2019-04-26T10:04:39.944Z,5056.00
2019-04-26T10:05:39.945Z,4808.00
2019-04-26T10:06:39.949Z,4908.00
2019-04-26T10:07:39.949Z,5012.00
2019-04-26T10:08:43.341Z,5060.00
2019-04-26T10:09:39.964Z,5312.00
2019-04-26T10:10:39.952Z,5568.00
2019-04-26T10:11:43.480Z,5508.00
2019-04-26T10:12:39.957Z,5500.00
2019-04-26T10:13:39.955Z,5528.00
2019-04-26T10:14:39.961Z,5608.00
2019-04-26T10:15:39.961Z,5760.00
2019-04-26T10:16:42.178Z,5812.00
2019-04-26T10:17:39.969Z,6008.00
2019-04-26T10:18:39.967Z,6004.00
2019-04-26T10:19:39.966Z,6188.00
2019-04-26T10:20:39.992Z,6080.00
2019-04-26T10:21:40.031Z,6168.00
2019-04-26T10:22:39.974Z,5884.00
2019-04-26T10:23:40.027Z,5772.00
2019-04-26T10:24:39.977Z,5944.00
2019-04-26T10:25:39.989Z,6136.00
2019-04-26T10:26:39.981Z,6152.00
2019-04-26T10:27:40.689Z,6220.00
2019-04-26T10:28:39.990Z,6276.00
2019-04-26T10:29:39.989Z,6468.00
2019-04-26T10:30:42.282Z,6268.00
2019-04-26T10:31:40.016Z,6628.00
2019-04-26T10:32:39.991Z,6260.00
2019-04-26T10:33:39.993Z,6872.00
2019-04-26T10:34:42.668Z,6532.00
2019-04-26T10:35:39.997Z,6760.00
2019-04-26T10:36:40.011Z,18752.00
2019-04-26T10:37:43.699Z,7448.00
2019-04-26T10:38:40.002Z,14856.00
2019-04-26T10:39:40.004Z,7248.00
2019-04-26T10:40:40.008Z,6860.00
2019-04-26T10:41:40.061Z,6464.00
2019-04-26T10:42:40.015Z,9824.00
2019-04-26T10:43:40.015Z,6620.00
2019-04-26T10:44:41.095Z,12572.00
2019-04-26T10:45:40.027Z,16800.00
2019-04-26T10:46:40.017Z,9568.00
2019-04-26T10:47:40.025Z,9556.00
2019-04-26T10:48:41.416Z,13592.00
2019-04-26T10:49:40.024Z,6028.00
2019-04-26T10:50:40.044Z,6488.00
2019-04-26T10:51:41.922Z,6540.00
2019-04-26T10:52:40.035Z,8028.00
2019-04-26T10:53:40.036Z,7588.00
2019-04-26T10:54:40.988Z,7328.00
2019-04-26T10:55:40.042Z,6228.00
2019-04-26T10:56:40.052Z,5784.00
2019-04-26T10:57:40.047Z,5976.00
2019-04-26T10:58:40.049Z,6900.00
2019-04-26T10:59:44.007Z,6760.00
2019-04-26T11:00:40.061Z,7340.00
2019-04-26T11:01:40.059Z,7340.00
2019-04-26T11:02:40.074Z,7000.00
2019-04-26T11:03:40.347Z,7384.00
2019-04-26T11:04:41.469Z,6860.00
2019-04-26T11:05:40.068Z,6952.00
2019-04-26T11:06:40.074Z,7696.00
2019-04-26T11:07:40.084Z,7192.00
2019-04-26T11:08:40.081Z,7092.00
2019-04-26T11:09:40.079Z,7112.00
2019-04-26T11:10:48.613Z,7060.00
2019-04-26T11:11:40.080Z,7984.00
2019-04-26T11:12:43.414Z,7596.00
2019-04-26T11:13:40.089Z,7596.00
2019-04-26T11:14:40.088Z,7528.00
2019-04-26T11:15:40.090Z,7536.00
2019-04-26T11:16:41.171Z,7308.00
2019-04-26T11:17:41.660Z,6928.00
2019-04-26T11:18:40.123Z,7160.00
2019-04-26T11:19:40.098Z,7468.00
2019-04-26T11:20:41.428Z,7612.00
2019-04-26T11:21:40.102Z,7436.00
2019-04-26T11:22:40.107Z,7660.00
2019-04-26T11:23:41.021Z,7836.00
2019-04-26T11:24:40.124Z,7536.00
2019-04-26T11:25:40.189Z,7464.00
2019-04-26T11:26:41.601Z,7212.00
2019-04-26T11:27:43.707Z,6964.00
2019-04-26T11:28:41.988Z,6960.00
2019-04-26T11:29:52.940Z,7012.00
2019-04-26T11:30:40.155Z,7132.00
2019-04-26T11:31:40.156Z,7212.00
2019-04-26T11:32:40.128Z,7272.00
2019-04-26T11:33:45.128Z,7160.00
2019-04-26T11:34:42.819Z,6736.00
2019-04-26T11:35:40.228Z,6608.00
2019-04-26T11:36:41.780Z,6556.00
2019-04-26T11:37:40.147Z,6492.00
2019-04-26T11:38:40.192Z,6452.00
2019-04-26T11:39:40.815Z,6400.00
2019-04-26T11:40:40.174Z,6492.00
2019-04-26T11:41:40.146Z,6744.00
2019-04-26T11:42:41.967Z,6532.00
2019-04-26T11:43:40.151Z,6716.00
2019-04-26T11:44:40.153Z,6624.00
2019-04-26T11:45:40.153Z,6524.00
2019-04-26T11:46:44.833Z,6296.00
2019-04-26T11:47:54.377Z,6028.00
2019-04-26T11:48:41.590Z,5840.00
2019-04-26T11:49:41.487Z,5752.00
2019-04-26T11:50:41.247Z,5808.00
2019-04-26T11:51:40.171Z,5756.00
2019-04-26T11:52:40.194Z,5944.00
2019-04-26T11:53:44.667Z,6228.00
2019-04-26T11:54:40.171Z,7204.00
2019-04-26T11:55:40.216Z,8024.00
2019-04-26T11:56:40.202Z,8072.00
2019-04-26T11:57:43.484Z,6864.00
2019-04-26T11:58:40.178Z,6672.00
2019-04-26T11:59:40.192Z,7148.00
2019-04-26T12:00:40.208Z,6892.00
2019-04-26T12:01:40.703Z,6972.00
2019-04-26T12:02:40.221Z,6148.00
2019-04-26T12:03:40.204Z,6244.00
2019-04-26T12:04:40.191Z,5816.00
2019-04-26T12:05:40.290Z,5564.00
2019-04-26T12:06:40.217Z,5532.00
2019-04-26T12:07:41.101Z,5540.00
2019-04-26T12:08:40.196Z,5604.00
2019-04-26T12:09:40.206Z,5512.00
2019-04-26T12:10:43.905Z,5900.00
2019-04-26T12:11:49.425Z,6728.00
2019-04-26T12:12:43.115Z,6436.00
2019-04-26T12:13:40.201Z,6428.00
2019-04-26T12:14:40.203Z,6660.00
2019-04-26T12:15:43.835Z,6708.00
2019-04-26T12:16:48.153Z,7380.00
2019-04-26T12:17:40.209Z,7228.00
2019-04-26T12:18:44.235Z,7768.00
2019-04-26T12:19:40.211Z,8120.00
2019-04-26T12:20:40.215Z,7180.00
2019-04-26T12:21:40.212Z,6552.00
2019-04-26T12:22:43.376Z,6260.00
2019-04-26T12:23:40.217Z,6448.00
2019-04-26T12:24:40.220Z,6468.00
2019-04-26T12:25:43.238Z,6420.00
2019-04-26T12:26:43.682Z,6296.00
2019-04-26T12:27:40.274Z,6020.00
2019-04-26T12:28:41.343Z,5656.00